createdAt,value
2023-03-19T00:01:08.303Z,68.74
2023-03-19T00:05:10.739Z,69.61
2023-03-19T00:09:13.531Z,69.67
2023-03-19T00:13:15.154Z,69.83
2023-03-19T00:17:16.551Z,69.91
2023-03-19T00:21:18.049Z,69.83
2023-03-19T00:25:20.773Z,70.23
2023-03-19T00:29:22.360Z,69.91
2023-03-19T00:33:23.841Z,69.44
2023-03-19T00:37:25.276Z,67.42
2023-03-19T00:41:28.317Z,68.73
2023-03-19T00:45:29.976Z,69.96
2023-03-19T00:49:31.399Z,70.38
2023-03-19T00:53:33.075Z,70.85
2023-03-19T00:57:35.816Z,70.87
2023-03-19T01:01:37.292Z,71.29
2023-03-19T01:05:41.400Z,71.74
2023-03-19T01:09:43.000Z,71.87
2023-03-19T01:13:45.812Z,72.09
2023-03-19T01:17:47.278Z,72.65
2023-03-19T01:21:48.809Z,72.98
2023-03-19T01:25:51.666Z,73.16
2023-03-19T01:29:54.417Z,74.41
2023-03-19T01:33:55.882Z,74.04
2023-03-19T01:37:57.317Z,74.52
2023-03-19T01:42:01.494Z,74.74
2023-03-19T01:46:08.407Z,75.32
2023-03-19T01:50:23.975Z,75.02
2023-03-19T01:54:27.823Z,75.28
2023-03-19T01:58:29.981Z,75.70
2023-03-19T02:02:35.162Z,75.93
2023-03-19T02:06:37.291Z,75.43
2023-03-19T02:10:40.290Z,75.23
2023-03-19T02:14:41.958Z,75.13
2023-03-19T02:18:44.951Z,73.30
2023-03-19T02:22:55.403Z,72.93
2023-03-19T02:26:58.300Z,73.88
2023-03-19T02:31:00.223Z,73.75
2023-03-19T02:35:01.884Z,74.98
2023-03-19T02:39:07.220Z,75.39
2023-03-19T02:43:09.946Z,75.37
2023-03-19T02:47:11.398Z,74.90
2023-03-19T02:51:12.811Z,74.94
2023-03-19T02:55:14.416Z,74.77
2023-03-19T02:59:17.208Z,74.33
2023-03-19T03:03:18.814Z,73.27
2023-03-19T03:07:20.222Z,72.45
2023-03-19T03:11:21.842Z,71.17
2023-03-19T03:15:24.693Z,71.03
2023-03-19T03:19:26.403Z,70.62
2023-03-19T03:23:27.813Z,70.54
2023-03-19T03:27:29.282Z,70.70
2023-03-19T03:31:32.088Z,71.02
2023-03-19T03:35:33.587Z,72.64
2023-03-19T03:39:35.108Z,73.55
2023-03-19T03:43:36.554Z,73.65
2023-03-19T03:47:39.482Z,72.66
2023-03-19T03:51:41.088Z,73.34
2023-03-19T03:55:43.646Z,74.59
2023-03-19T03:59:45.295Z,74.99
2023-03-19T04:03:48.071Z,75.75
2023-03-19T04:07:49.816Z,75.99
2023-03-19T04:11:51.661Z,76.31
2023-03-19T04:15:53.174Z,77.16
2023-03-19T04:19:56.168Z,76.36
2023-03-19T04:23:57.683Z,76.45
2023-03-19T04:27:59.067Z,77.30
2023-03-19T04:32:00.467Z,77.63
2023-03-19T04:36:04.089Z,76.33
2023-03-19T04:40:07.005Z,75.65
2023-03-19T04:44:08.467Z,75.84
2023-03-19T04:48:10.141Z,77.57
2023-03-19T04:52:12.979Z,77.89
2023-03-19T04:56:14.443Z,78.35
2023-03-19T05:00:17.055Z,78.32
2023-03-19T05:04:18.475Z,78.26
2023-03-19T05:08:21.303Z,78.47
2023-03-19T05:12:22.717Z,79.28
2023-03-19T05:16:24.239Z,79.28
2023-03-19T05:20:25.702Z,78.66
2023-03-19T05:24:28.517Z,77.17
2023-03-19T05:28:29.950Z,76.38
2023-03-19T05:32:31.673Z,77.16
2023-03-19T05:36:33.507Z,75.24
2023-03-19T05:40:36.560Z,76.03
2023-03-19T05:44:37.992Z,77.38
2023-03-19T05:48:40.874Z,77.73
2023-03-19T05:52:42.270Z,76.53
2023-03-19T05:56:45.059Z,76.61
2023-03-19T06:00:46.826Z,76.94
2023-03-19T06:04:48.260Z,77.76
2023-03-19T06:08:50.863Z,77.70
2023-03-19T06:12:53.596Z,76.71
2023-03-19T06:16:54.980Z,76.38
2023-03-19T06:20:56.401Z,77.08
2023-03-19T06:24:57.795Z,77.96
2023-03-19T06:29:01.371Z,77.81
2023-03-19T06:33:03.048Z,78.63
2023-03-19T06:37:04.530Z,79.37
2023-03-19T06:41:06.073Z,78.50
2023-03-19T06:45:09.486Z,77.06
2023-03-19T06:49:10.976Z,77.82
2023-03-19T06:53:12.823Z,76.65
2023-03-19T06:57:14.211Z,76.71
2023-03-19T07:01:16.945Z,75.94
2023-03-19T07:05:18.457Z,75.26
2023-03-19T07:09:20.030Z,74.89
2023-03-19T07:13:21.485Z,75.35
2023-03-19T07:17:24.977Z,74.61
2023-03-19T07:21:26.444Z,75.28
2023-03-19T07:25:27.896Z,74.61
2023-03-19T07:29:29.289Z,74.24
2023-03-19T07:33:32.280Z,73.49
2023-03-19T07:37:34.048Z,72.52
2023-03-19T07:41:35.429Z,65.65
2023-03-19T07:45:37.015Z,64.49
2023-03-19T07:49:39.732Z,63.70
2023-03-19T07:53:41.135Z,64.87
2023-03-19T07:57:42.773Z,66.82
2023-03-19T08:01:44.136Z,67.00
2023-03-19T08:05:48.221Z,65.81
2023-03-19T08:09:49.642Z,66.78
2023-03-19T08:13:51.091Z,66.89
2023-03-19T08:17:57.840Z,67.52
2023-03-19T08:22:00.608Z,67.28
2023-03-19T08:26:02.019Z,68.08
2023-03-19T08:30:04.715Z,67.08
2023-03-19T08:34:07.957Z,66.93
2023-03-19T08:38:10.749Z,66.13
2023-03-19T08:42:12.830Z,65.76
2023-03-19T08:46:14.578Z,66.91
2023-03-19T08:50:16.623Z,66.45
2023-03-19T08:54:22.180Z,66.00
2023-03-19T08:58:24.993Z,65.54
2023-03-19T09:02:26.419Z,65.55
2023-03-19T09:06:27.870Z,64.47
2023-03-19T09:10:30.772Z,65.44
2023-03-19T09:14:32.438Z,64.37
2023-03-19T09:18:34.191Z,64.89
2023-03-19T09:22:35.621Z,63.07
2023-03-19T09:26:38.356Z,62.74
2023-03-19T09:30:39.775Z,62.46
2023-03-19T09:34:41.188Z,62.61
2023-03-19T09:38:43.043Z,60.64
2023-03-19T09:42:58.649Z,60.29
2023-03-19T09:47:12.596Z,60.37
2023-03-19T09:51:20.861Z,60.91
2023-03-19T09:55:39.784Z,59.75
2023-03-19T09:59:42.967Z,59.60
2023-03-19T10:04:02.008Z,59.95
2023-03-19T10:08:18.769Z,60.79
2023-03-19T10:12:31.479Z,57.09
2023-03-19T10:16:37.221Z,55.61
2023-03-19T10:20:51.711Z,52.48
2023-03-19T10:24:55.206Z,52.17
2023-03-19T10:29:04.208Z,52.62
2023-03-19T10:33:17.637Z,53.17
2023-03-19T10:37:21.500Z,55.00
2023-03-19T10:41:34.715Z,57.30
2023-03-19T10:45:39.283Z,57.69
2023-03-19T10:49:42.495Z,55.66
2023-03-19T10:53:43.934Z,55.07
2023-03-19T10:57:49.919Z,52.76
2023-03-19T11:01:57.051Z,54.96
2023-03-19T11:06:16.641Z,54.57
2023-03-19T11:10:20.393Z,54.98
2023-03-19T11:14:26.151Z,57.50
2023-03-19T11:18:30.266Z,59.85
2023-03-19T11:22:34.969Z,58.15
2023-03-19T11:26:36.389Z,60.60
2023-03-19T11:30:47.172Z,59.53
2023-03-19T11:34:53.931Z,57.97
2023-03-19T11:39:12.788Z,56.27
2023-03-19T11:43:40.401Z,50.87
2023-03-19T11:47:53.625Z,51.56
2023-03-19T11:52:01.724Z,50.34
2023-03-19T11:56:16.050Z,49.38
2023-03-19T12:00:26.248Z,47.14
2023-03-19T12:04:45.153Z,49.77
2023-03-19T12:08:54.760Z,46.15
2023-03-19T12:13:07.510Z,46.69
2023-03-19T12:17:30.297Z,50.96
2023-03-19T12:21:44.354Z,50.53
2023-03-19T12:25:58.379Z,50.53
2023-03-19T12:30:08.960Z,51.25
2023-03-19T12:34:22.240Z,50.81
2023-03-19T12:38:30.077Z,51.16
2023-03-19T12:42:37.569Z,52.19
2023-03-19T12:46:45.190Z,51.49
2023-03-19T12:50:50.832Z,52.21
2023-03-19T12:54:59.998Z,51.90
2023-03-19T12:59:11.185Z,51.81
2023-03-19T13:03:18.027Z,52.20
2023-03-19T13:07:23.936Z,52.31
2023-03-19T13:11:35.034Z,51.34
2023-03-19T13:15:41.437Z,50.71
2023-03-19T13:19:47.816Z,50.84
2023-03-19T13:23:59.861Z,50.86
2023-03-19T13:28:01.394Z,49.40
2023-03-19T13:32:06.988Z,48.74
2023-03-19T13:36:14.104Z,49.43
2023-03-19T13:40:46.355Z,50.09
2023-03-19T13:44:50.699Z,52.72
2023-03-19T13:48:52.745Z,55.67
2023-03-19T13:53:19.547Z,58.28
2023-03-19T13:57:33.171Z,59.02
2023-03-19T14:01:42.525Z,60.46
2023-03-19T14:05:47.304Z,64.61
2023-03-19T14:10:04.536Z,66.77
2023-03-19T14:14:13.761Z,69.62
2023-03-19T14:18:20.489Z,72.38
2023-03-19T14:22:35.298Z,72.74
2023-03-19T14:26:43.328Z,66.42
2023-03-19T14:30:47.006Z,68.97
2023-03-19T14:34:49.917Z,74.57
2023-03-19T14:38:54.296Z,70.03
2023-03-19T14:43:05.012Z,72.76
2023-03-19T14:47:25.733Z,70.82
2023-03-19T14:51:47.717Z,69.47
2023-03-19T14:55:51.318Z,70.42
2023-03-19T14:59:54.514Z,69.85
2023-03-19T15:03:58.927Z,71.79
2023-03-19T15:08:02.934Z,70.25
2023-03-19T15:12:31.691Z,74.45
2023-03-19T15:16:43.947Z,76.10
2023-03-19T15:20:48.078Z,77.37
2023-03-19T15:24:49.584Z,76.86
2023-03-19T15:28:53.940Z,77.35
2023-03-19T15:33:10.535Z,79.17
2023-03-19T15:37:16.065Z,81.18
2023-03-19T15:41:18.719Z,82.78
2023-03-19T15:45:22.490Z,83.22
2023-03-19T15:49:30.615Z,83.28
2023-03-19T15:53:34.170Z,80.44
2023-03-19T15:57:38.214Z,80.66
2023-03-19T16:01:39.828Z,79.80
2023-03-19T16:05:42.825Z,80.45
2023-03-19T16:09:44.249Z,80.95
2023-03-19T16:13:55.638Z,80.74
2023-03-19T16:18:09.680Z,81.21
2023-03-19T16:22:15.659Z,82.17
2023-03-19T16:26:21.367Z,82.08
2023-03-19T16:30:25.205Z,82.63
2023-03-19T16:34:34.787Z,81.38
2023-03-19T16:38:52.422Z,81.28
2023-03-19T16:42:54.318Z,80.26
2023-03-19T16:46:55.842Z,80.91
2023-03-19T16:50:57.627Z,81.51
2023-03-19T16:55:00.745Z,82.73
2023-03-19T16:59:02.923Z,81.23
2023-03-19T17:03:11.071Z,80.83
2023-03-19T17:07:13.164Z,80.93
2023-03-19T17:11:21.916Z,81.60
2023-03-19T17:15:25.937Z,84.11
2023-03-19T17:19:34.325Z,87.06
2023-03-19T17:23:36.188Z,84.73
2023-03-19T17:27:39.442Z,84.88
2023-03-19T17:31:41.018Z,84.48
2023-03-19T17:35:42.558Z,85.75
2023-03-19T17:39:44.082Z,87.53
2023-03-19T17:43:47.823Z,86.63
2023-03-19T17:47:52.027Z,87.88
2023-03-19T17:51:53.563Z,88.02
2023-03-19T17:55:55.036Z,88.02
2023-03-19T17:59:57.779Z,87.63
2023-03-19T18:03:59.892Z,88.64
2023-03-19T18:08:01.366Z,89.04
2023-03-19T18:12:02.875Z,88.99
2023-03-19T18:16:20.011Z,89.09
2023-03-19T18:20:23.698Z,89.38
2023-03-19T18:24:25.211Z,89.77
2023-03-19T18:28:27.153Z,89.35
2023-03-19T18:32:32.529Z,89.34
2023-03-19T18:36:34.588Z,90.20
2023-03-19T18:40:36.188Z,90.96
2023-03-19T18:44:39.181Z,90.43
2023-03-19T18:48:42.637Z,90.66
2023-03-19T18:52:44.963Z,90.71
2023-03-19T18:56:47.890Z,90.48
2023-03-19T19:00:53.029Z,91.07
2023-03-19T19:04:56.412Z,89.91
2023-03-19T19:08:57.813Z,89.12
2023-03-19T19:13:00.818Z,86.83
2023-03-19T19:17:02.400Z,86.78
2023-03-19T19:21:07.937Z,86.02
2023-03-19T19:25:14.573Z,85.85
2023-03-19T19:29:21.971Z,84.66
2023-03-19T19:33:25.823Z,84.48
2023-03-19T19:37:28.724Z,85.35
2023-03-19T19:41:31.815Z,85.56
2023-03-19T19:45:35.598Z,85.69
2023-03-19T19:49:37.554Z,84.40
2023-03-19T19:53:42.769Z,85.13
2023-03-19T19:57:45.063Z,84.25
2023-03-19T20:01:46.617Z,84.45
2023-03-19T20:05:48.754Z,85.16
2023-03-19T20:09:53.402Z,84.24
2023-03-19T20:13:55.186Z,85.15
2023-03-19T20:17:56.896Z,86.44
2023-03-19T20:21:58.336Z,86.55
2023-03-19T20:26:01.434Z,86.64
2023-03-19T20:30:04.249Z,86.11
2023-03-19T20:34:05.725Z,87.34
2023-03-19T20:38:07.288Z,87.58
2023-03-19T20:42:13.568Z,87.69
2023-03-19T20:46:17.356Z,87.34
2023-03-19T20:50:21.612Z,86.87
2023-03-19T20:54:23.143Z,88.20
2023-03-19T20:58:29.234Z,87.90
2023-03-19T21:02:30.845Z,86.98
2023-03-19T21:06:46.124Z,87.38
2023-03-19T21:10:53.576Z,87.51
2023-03-19T21:14:56.987Z,87.32
2023-03-19T21:18:58.985Z,87.34
2023-03-19T21:23:09.040Z,86.28
2023-03-19T21:27:20.128Z,86.36
2023-03-19T21:31:23.050Z,85.99
2023-03-19T21:35:26.244Z,85.49
2023-03-19T21:39:27.969Z,86.53
2023-03-19T21:43:33.261Z,85.97
2023-03-19T21:47:36.016Z,86.21
2023-03-19T21:51:37.561Z,86.51
2023-03-19T21:55:39.293Z,85.70
2023-03-19T21:59:41.718Z,85.53
2023-03-19T22:03:44.727Z,84.64
2023-03-19T22:07:46.449Z,85.83
2023-03-19T22:11:47.942Z,85.26
2023-03-19T22:15:51.578Z,85.30
2023-03-19T22:19:54.396Z,84.36
2023-03-19T22:23:55.794Z,84.53
2023-03-19T22:27:59.009Z,83.13
2023-03-19T22:32:00.638Z,83.12
2023-03-19T22:36:03.707Z,83.42
2023-03-19T22:40:06.411Z,82.96
2023-03-19T22:44:12.975Z,82.75
2023-03-19T22:48:15.309Z,82.37
2023-03-19T22:52:18.077Z,83.43
2023-03-19T22:56:20.691Z,83.91
2023-03-19T23:00:22.838Z,82.66
2023-03-19T23:04:26.523Z,82.45
2023-03-19T23:08:29.565Z,83.27
2023-03-19T23:12:31.016Z,82.34
2023-03-19T23:16:32.639Z,82.64
2023-03-19T23:20:34.368Z,82.23
2023-03-19T23:24:37.273Z,81.93
2023-03-19T23:28:38.734Z,82.04
2023-03-19T23:32:40.189Z,81.95
2023-03-19T23:36:42.170Z,81.52
2023-03-19T23:40:45.546Z,82.29
2023-03-19T23:44:46.953Z,82.54
2023-03-19T23:48:48.336Z,82.73
2023-03-19T23:52:49.727Z,82.57
2023-03-19T23:56:52.646Z,82.32
